Time;durP1;ratioP1;P1;durP2;ratioP2;P2;SDS_P1;SDS_P2;PMS_P1;PMS_P2;Temp;Humidity;BMP_temperature;BMP_pressure;BME280_temperature;BME280_humidity;BME280_pressure;Samples;Min_cycle;Max_cycle;Signal;HPM_P1;HPM_P2
2022/10/02 00:01:18;;;;;;;11.77;6.03;;;15.00;99.90;;;;;;5035908;28;20513;-62
2022/10/02 00:03:48;;;;;;;11.23;6.90;;;14.90;99.90;;;;;;5036352;28;20479;-61
2022/10/02 00:06:20;;;;;;;5.70;5.07;;;15.00;99.90;;;;;;5043782;28;20487;-62
2022/10/02 00:08:50;;;;;;;12.33;6.80;;;15.00;99.90;;;;;;5045113;28;20494;-63
2022/10/02 00:11:22;;;;;;;10.00;5.10;;;15.00;99.90;;;;;;5038112;28;20479;-62
2022/10/02 00:13:51;;;;;;;11.40;6.10;;;14.80;99.90;;;;;;5046943;28;21554;-62
2022/10/02 00:16:25;;;;;;;9.47;6.20;;;14.90;99.90;;;;;;5045071;28;20910;-62
2022/10/02 00:18:55;;;;;;;7.40;5.73;;;14.90;99.90;;;;;;5043633;28;20487;-62
2022/10/02 00:21:36;;;;;;;9.97;7.60;;;14.90;99.90;;;;;;5046314;28;21351;-62
2022/10/02 00:24:06;;;;;;;11.73;4.53;;;14.90;99.90;;;;;;5048253;28;20491;-62
2022/10/02 00:26:38;;;;;;;6.60;4.60;;;14.90;99.90;;;;;;5048474;28;20486;-62
2022/10/02 00:29:20;;;;;;;8.80;4.70;;;14.90;99.90;;;;;;5044161;28;20479;-63
2022/10/02 00:32:01;;;;;;;11.37;5.90;;;14.90;99.90;;;;;;5041020;28;20800;-62
2022/10/02 00:34:38;;;;;;;11.70;5.83;;;14.90;99.90;;;;;;5036758;28;20487;-62
2022/10/02 00:37:11;;;;;;;9.63;4.90;;;14.90;99.90;;;;;;5035378;28;20494;-62
2022/10/02 00:39:51;;;;;;;8.70;4.40;;;14.90;99.90;;;;;;5046388;28;20489;-62
2022/10/02 00:42:51;;;;;;;7.90;5.57;;;14.90;99.90;;;;;;5033536;28;20498;-61
2022/10/02 00:45:53;;;;;;;8.20;5.40;;;14.90;99.90;;;;;;5032598;28;20518;-62
2022/10/02 00:48:33;;;;;;;8.00;6.70;;;15.00;99.90;;;;;;5050248;27;21024;-62
2022/10/02 00:51:12;;;;;;;11.13;6.07;;;15.00;99.90;;;;;;5050457;27;20870;-62
2022/10/02 00:53:47;;;;;;;5.87;4.53;;;15.00;99.90;;;;;;5047255;27;20926;-62
2022/10/02 00:56:27;;;;;;;9.07;5.53;;;15.00;99.90;;;;;;5048952;28;20467;-62
2022/10/02 00:59:24;;;;;;;9.70;4.93;;;15.00;99.90;;;;;;5049369;28;20475;-62
2022/10/02 01:01:57;;;;;;;14.63;5.20;;;15.00;99.90;;;;;;5031564;28;21023;-63
2022/10/02 01:04:31;;;;;;;17.20;8.00;;;15.00;99.90;;;;;;5038914;28;20479;-62
2022/10/02 01:06:59;;;;;;;16.60;4.70;;;14.90;99.90;;;;;;5060406;28;20638;-62
2022/10/02 01:09:27;;;;;;;12.50;6.47;;;14.90;99.90;;;;;;5040410;28;21175;-62
2022/10/02 01:11:54;;;;;;;9.93;5.90;;;14.90;99.90;;;;;;5044361;28;20826;-62
2022/10/02 01:14:30;;;;;;;12.10;5.63;;;15.00;99.90;;;;;;5043718;28;20756;-62
2022/10/02 01:16:57;;;;;;;10.23;5.20;;;15.00;99.90;;;;;;5044273;28;20975;-62
2022/10/02 01:19:30;;;;;;;10.33;7.37;;;14.90;99.90;;;;;;5043067;28;20479;-63
2022/10/02 01:22:04;;;;;;;9.30;5.00;;;14.80;99.90;;;;;;5041544;28;20982;-62
2022/10/02 01:24:34;;;;;;;8.60;5.90;;;14.80;99.90;;;;;;5042557;28;20848;-62
2022/10/02 01:27:03;;;;;;;12.97;4.57;;;14.90;99.90;;;;;;5044448;28;20471;-62
2022/10/02 01:29:29;;;;;;;13.30;7.40;;;14.80;99.90;;;;;;5041131;28;20568;-62
2022/10/02 01:31:56;;;;;;;7.07;5.33;;;14.80;99.90;;;;;;5049905;28;20486;-62
2022/10/02 01:34:23;;;;;;;12.30;6.27;;;14.80;99.90;;;;;;5024508;28;20609;-62
2022/10/02 01:36:50;;;;;;;13.73;5.50;;;14.80;99.90;;;;;;5042706;28;20860;-63
2022/10/02 01:39:17;;;;;;;14.93;6.00;;;14.80;99.90;;;;;;5041407;28;20474;-63
2022/10/02 01:41:45;;;;;;;15.47;5.77;;;14.80;99.90;;;;;;5043275;28;20492;-63
2022/10/02 01:44:14;;;;;;;16.77;6.73;;;14.70;99.90;;;;;;5045380;28;20488;-63
2022/10/02 01:46:52;;;;;;;12.53;6.13;;;14.70;99.90;;;;;;5047295;28;20483;-62
2022/10/02 01:49:33;;;;;;;15.50;8.03;;;14.70;99.90;;;;;;5045997;28;20494;-62
2022/10/02 01:52:19;;;;;;;11.00;6.37;;;14.70;99.90;;;;;;5046728;28;20845;-63
2022/10/02 01:55:00;;;;;;;15.13;6.53;;;14.70;99.90;;;;;;5048112;28;20927;-62
2022/10/02 01:57:38;;;;;;;17.33;7.57;;;14.80;99.90;;;;;;5038816;28;20476;-63
2022/10/02 02:00:10;;;;;;;10.67;7.17;;;14.70;99.90;;;;;;5047789;28;20483;-63
2022/10/02 02:02:46;;;;;;;22.83;7.77;;;14.70;99.90;;;;;;5051583;28;20474;-63
2022/10/02 02:05:27;;;;;;;11.60;7.33;;;14.60;99.90;;;;;;5047036;28;20483;-63
2022/10/02 02:08:05;;;;;;;13.90;6.10;;;14.70;99.90;;;;;;5051695;28;20469;-63
2022/10/02 02:10:43;;;;;;;10.67;6.97;;;14.70;99.90;;;;;;5054561;28;20478;-63
2022/10/02 02:13:15;;;;;;;16.73;5.57;;;14.80;99.90;;;;;;5079145;28;20474;-62
2022/10/02 02:15:49;;;;;;;11.90;6.83;;;14.70;99.90;;;;;;5068091;28;20990;-62
2022/10/02 02:18:25;;;;;;;12.23;5.10;;;14.70;99.90;;;;;;5065585;28;20625;-63
2022/10/02 02:20:56;;;;;;;11.53;7.10;;;14.80;99.90;;;;;;5057628;28;20474;-63
2022/10/02 02:23:28;;;;;;;14.80;9.23;;;14.80;99.90;;;;;;5068400;28;21006;-63
2022/10/02 02:25:59;;;;;;;8.00;5.73;;;14.80;99.90;;;;;;5060281;28;20485;-62
2022/10/02 02:28:29;;;;;;;10.63;7.23;;;15.40;99.90;;;;;;5066593;28;20489;-62
2022/10/02 02:31:00;;;;;;;11.70;6.20;;;14.90;99.90;;;;;;5057197;28;20861;-63
2022/10/02 02:33:32;;;;;;;8.93;7.17;;;14.90;99.90;;;;;;5065677;28;20482;-62
2022/10/02 02:36:05;;;;;;;10.97;5.57;;;14.90;99.90;;;;;;5072189;28;20939;-63
2022/10/02 02:38:36;;;;;;;9.90;5.53;;;14.80;99.90;;;;;;5061309;28;20482;-63
2022/10/02 02:41:07;;;;;;;12.30;6.10;;;14.80;99.90;;;;;;5066890;28;21123;-63
2022/10/02 02:43:40;;;;;;;23.27;6.20;;;14.80;99.90;;;;;;5065645;28;20844;-62
2022/10/02 02:46:16;;;;;;;10.13;5.63;;;14.80;99.90;;;;;;5066087;28;20953;-63
2022/10/02 02:48:46;;;;;;;13.20;5.70;;;14.90;99.90;;;;;;5067390;28;20489;-63
2022/10/02 02:51:17;;;;;;;10.33;6.23;;;14.90;99.90;;;;;;5069163;28;20552;-62
2022/10/02 02:53:49;;;;;;;6.50;5.40;;;14.90;99.90;;;;;;5066765;28;20865;-63
2022/10/02 02:56:18;;;;;;;17.60;7.47;;;14.90;99.90;;;;;;5056753;28;20513;-63
2022/10/02 02:58:48;;;;;;;19.37;5.20;;;14.90;99.90;;;;;;5069172;28;20512;-62
2022/10/02 03:01:16;;;;;;;8.57;4.70;;;15.00;99.90;;;;;;5065971;28;20474;-62
2022/10/02 03:03:43;;;;;;;10.20;5.30;;;15.00;99.90;;;;;;5072355;28;20486;-63
2022/10/02 03:06:30;;;;;;;15.17;5.17;;;15.00;99.90;;;;;;5072314;28;20474;-63
2022/10/02 03:08:58;;;;;;;8.77;4.87;;;14.80;99.90;;;;;;5067259;28;20477;-63
2022/10/02 03:11:41;;;;;;;11.20;7.23;;;14.80;99.90;;;;;;5073507;28;20485;-62
2022/10/02 03:14:22;;;;;;;33.83;6.47;;;14.90;99.90;;;;;;5073551;28;20486;-62
2022/10/02 03:16:59;;;;;;;17.43;5.93;;;14.90;99.90;;;;;;5067729;28;20524;-62
2022/10/02 03:19:39;;;;;;;17.40;7.40;;;14.90;99.90;;;;;;5079191;28;20490;-62
2022/10/02 03:22:13;;;;;;;9.67;4.53;;;14.80;99.90;;;;;;5073307;28;20997;-62
2022/10/02 03:24:48;;;;;;;12.00;4.53;;;14.90;99.90;;;;;;5075259;28;20478;-63
2022/10/02 03:27:20;;;;;;;9.37;4.90;;;14.90;99.90;;;;;;5074711;28;20852;-63
2022/10/02 03:29:52;;;;;;;24.20;4.73;;;14.90;99.90;;;;;;5072914;28;20471;-63
2022/10/02 03:32:22;;;;;;;19.27;6.50;;;14.90;99.90;;;;;;5073485;28;20486;-63
2022/10/02 03:34:49;;;;;;;7.70;6.30;;;14.90;99.90;;;;;;5072187;28;20498;-62
2022/10/02 03:37:17;;;;;;;15.03;5.33;;;14.80;99.90;;;;;;5072009;28;20565;-63
2022/10/02 03:39:44;;;;;;;13.77;5.83;;;14.80;99.90;;;;;;5071663;28;20582;-62
2022/10/02 03:42:13;;;;;;;11.53;4.90;;;14.80;99.90;;;;;;5068551;28;20797;-63
2022/10/02 03:44:40;;;;;;;6.93;5.23;;;14.70;99.90;;;;;;5071482;28;20840;-62
2022/10/02 03:47:06;;;;;;;12.50;5.00;;;14.80;99.90;;;;;;5074726;28;20462;-63
2022/10/02 03:49:34;;;;;;;5.53;5.00;;;14.80;99.90;;;;;;5072635;28;22103;-63
2022/10/02 03:52:01;;;;;;;6.00;4.60;;;14.80;99.90;;;;;;5072919;28;20710;-63
2022/10/02 03:54:33;;;;;;;11.97;6.43;;;14.80;99.90;;;;;;5073086;28;21170;-63
2022/10/02 03:57:04;;;;;;;6.80;5.60;;;14.90;99.90;;;;;;5067596;28;20481;-63
2022/10/02 03:59:41;;;;;;;10.73;5.37;;;14.80;99.90;;;;;;5074315;28;20599;-63
2022/10/02 04:02:13;;;;;;;7.10;4.53;;;14.80;99.90;;;;;;5060307;28;20474;-62
2022/10/02 04:04:46;;;;;;;8.13;4.50;;;14.80;99.90;;;;;;5075397;28;20486;-63
2022/10/02 04:07:19;;;;;;;14.03;5.40;;;14.80;99.90;;;;;;5071508;28;20470;-62
2022/10/02 04:09:51;;;;;;;13.67;4.60;;;14.80;99.90;;;;;;5072262;28;20470;-63
2022/10/02 04:12:23;;;;;;;14.07;6.30;;;14.80;99.90;;;;;;5073082;28;20857;-63
2022/10/02 04:14:55;;;;;;;14.53;4.87;;;14.80;99.90;;;;;;5074654;28;20479;-62
2022/10/02 04:17:25;;;;;;;12.03;6.03;;;14.80;99.90;;;;;;5075421;28;20514;-62
2022/10/02 04:19:59;;;;;;;24.13;5.10;;;15.40;99.90;;;;;;5069519;28;20491;-62
2022/10/02 04:22:33;;;;;;;12.50;7.27;;;14.80;99.90;;;;;;5072349;28;20932;-62
2022/10/02 04:25:05;;;;;;;12.60;4.80;;;14.80;99.90;;;;;;5062745;28;20504;-63
2022/10/02 04:27:36;;;;;;;9.27;4.40;;;14.70;99.90;;;;;;5075008;28;20465;-63
2022/10/02 04:30:06;;;;;;;7.50;4.60;;;14.60;99.90;;;;;;5059315;28;20743;-63
2022/10/02 04:32:36;;;;;;;6.57;4.90;;;14.60;99.90;;;;;;5063270;28;20543;-62
2022/10/02 04:35:13;;;;;;;7.43;4.37;;;14.60;99.90;;;;;;5063295;28;20569;-63
2022/10/02 04:37:55;;;;;;;6.80;3.90;;;14.60;99.90;;;;;;5074782;28;20505;-62
2022/10/02 04:40:39;;;;;;;14.60;7.33;;;14.70;99.90;;;;;;5072657;28;20572;-63
2022/10/02 04:43:23;;;;;;;17.60;5.20;;;14.60;99.90;;;;;;5060457;28;20470;-62
2022/10/02 04:46:03;;;;;;;6.20;5.00;;;14.50;99.90;;;;;;5072969;28;20801;-63
2022/10/02 04:48:57;;;;;;;7.47;4.67;;;14.50;99.90;;;;;;5073098;28;20859;-63
2022/10/02 04:51:38;;;;;;;12.20;7.67;;;14.50;99.90;;;;;;5071287;28;21026;-63
2022/10/02 04:54:27;;;;;;;8.17;3.37;;;14.40;99.90;;;;;;5060300;28;20943;-63
2022/10/02 04:57:16;;;;;;;6.87;3.93;;;14.30;99.90;;;;;;5076961;28;21065;-63
2022/10/02 04:59:59;;;;;;;9.83;4.40;;;14.30;99.90;;;;;;5056310;28;20974;-63
2022/10/02 05:02:36;;;;;;;10.60;7.60;;;14.40;99.90;;;;;;5086788;28;20478;-62
2022/10/02 05:05:18;;;;;;;9.00;4.67;;;14.40;99.90;;;;;;5066331;28;20466;-63
2022/10/02 05:08:20;;;;;;;16.27;5.13;;;14.40;99.90;;;;;;5075195;28;20471;-63
2022/10/02 05:11:02;;;;;;;6.63;5.37;;;14.40;99.90;;;;;;5049331;28;20478;-62
2022/10/02 05:13:56;;;;;;;11.00;6.50;;;14.30;99.90;;;;;;5072503;28;20481;-61
2022/10/02 05:16:50;;;;;;;8.83;6.47;;;14.30;99.90;;;;;;5074811;28;20571;-61
2022/10/02 05:19:29;;;;;;;8.97;5.47;;;14.40;99.90;;;;;;5071373;28;20482;-60
2022/10/02 05:22:13;;;;;;;6.67;3.90;;;14.30;99.90;;;;;;5071473;28;20482;-62
2022/10/02 05:24:58;;;;;;;5.30;4.80;;;;;;;;;;5060978;28;21031;-61
2022/10/02 05:27:49;;;;;;;10.10;4.30;;;14.40;99.90;;;;;;5071450;28;20484;-62
2022/10/02 05:30:17;;;;;;;11.27;4.97;;;14.40;99.90;;;;;;5067807;28;20811;-61
2022/10/02 05:33:14;;;;;;;8.73;4.63;;;14.50;99.90;;;;;;5071455;28;20510;-62
2022/10/02 05:36:05;;;;;;;7.63;3.93;;;14.40;99.90;;;;;;5061834;28;20491;-61
2022/10/02 05:38:50;;;;;;;6.70;5.00;;;14.50;99.90;;;;;;5067838;28;20958;-61
2022/10/02 05:41:26;;;;;;;9.20;5.40;;;14.40;99.90;;;;;;5057293;28;20678;-61
2022/10/02 05:44:01;;;;;;;4.70;3.47;;;14.50;99.90;;;;;;5065640;28;20777;-61
2022/10/02 05:46:35;;;;;;;11.73;6.00;;;14.40;99.90;;;;;;5074264;28;20513;-61
2022/10/02 05:49:09;;;;;;;5.30;4.57;;;14.30;99.90;;;;;;5068062;28;20561;-61
2022/10/02 05:51:41;;;;;;;7.60;3.37;;;14.30;99.90;;;;;;5068879;28;20469;-61
2022/10/02 05:54:19;;;;;;;4.63;3.27;;;14.30;99.90;;;;;;5072050;28;20486;-61
2022/10/02 05:56:54;;;;;;;21.27;4.13;;;14.30;99.90;;;;;;5061872;28;20490;-61
2022/10/02 05:59:28;;;;;;;10.63;5.93;;;14.30;99.90;;;;;;5069948;28;20478;-62
2022/10/02 06:02:02;;;;;;;6.20;4.07;;;14.30;99.90;;;;;;5072691;28;20977;-61
2022/10/02 06:04:34;;;;;;;9.13;8.03;;;14.20;99.90;;;;;;5065437;28;20486;-61
2022/10/02 06:07:06;;;;;;;6.67;4.13;;;14.20;99.90;;;;;;5080767;28;21234;-61
2022/10/02 06:09:36;;;;;;;6.50;3.50;;;14.10;99.90;;;;;;5070520;28;20490;-61
2022/10/02 06:12:08;;;;;;;9.70;4.03;;;14.10;99.90;;;;;;5073544;28;20916;-61
2022/10/02 06:14:40;;;;;;;8.80;4.80;;;14.10;99.90;;;;;;5060599;28;21002;-61
2022/10/02 06:17:12;;;;;;;5.57;3.37;;;14.10;99.90;;;;;;5074476;28;20489;-61
2022/10/02 06:19:43;;;;;;;8.00;3.93;;;14.10;99.90;;;;;;5058905;28;20469;-61
2022/10/02 06:22:14;;;;;;;4.50;3.43;;;14.20;99.90;;;;;;5063807;28;20478;-60
2022/10/02 06:24:47;;;;;;;10.03;3.80;;;14.30;99.90;;;;;;5058756;28;20731;-61
2022/10/02 06:27:27;;;;;;;6.20;3.57;;;14.30;99.90;;;;;;5063556;28;20977;-61
2022/10/02 06:29:59;;;;;;;5.03;3.67;;;14.30;99.90;;;;;;5069918;28;20871;-60
2022/10/02 06:32:33;;;;;;;16.37;7.70;;;14.30;99.90;;;;;;5068398;28;20826;-61
2022/10/02 06:35:01;;;;;;;6.13;3.53;;;14.40;99.90;;;;;;5072586;28;20883;-61
2022/10/02 06:37:36;;;;;;;12.70;6.87;;;14.50;99.90;;;;;;5073400;28;20482;-61
2022/10/02 06:40:21;;;;;;;4.87;4.07;;;14.50;99.90;;;;;;5068403;28;20469;-61
2022/10/02 06:42:57;;;;;;;8.27;5.30;;;14.70;99.90;;;;;;5062211;28;20489;-61
2022/10/02 06:45:31;;;;;;;8.30;6.20;;;14.70;99.90;;;;;;5071714;28;20505;-60
2022/10/02 06:48:05;;;;;;;10.60;5.77;;;14.70;99.90;;;;;;5066170;28;21136;-60
2022/10/02 06:50:43;;;;;;;8.87;5.90;;;15.00;99.90;;;;;;5068936;28;21222;-60
2022/10/02 06:53:21;;;;;;;4.60;3.10;;;15.00;99.90;;;;;;5072683;28;20959;-61
2022/10/02 06:55:58;;;;;;;4.77;3.30;;;15.20;99.90;;;;;;5063246;28;20490;-61
2022/10/02 06:58:47;;;;;;;15.97;6.70;;;15.30;99.90;;;;;;5072220;28;20512;-61
2022/10/02 07:01:24;;;;;;;5.77;4.77;;;15.30;99.90;;;;;;5069692;28;20481;-61
2022/10/02 07:04:23;;;;;;;9.83;4.23;;;15.30;99.90;;;;;;5060949;28;20473;-61
2022/10/02 07:07:12;;;;;;;8.77;5.97;;;15.30;99.90;;;;;;5061672;28;20473;-61
2022/10/02 07:10:00;;;;;;;6.40;4.63;;;15.20;99.90;;;;;;5071798;28;20542;-60
2022/10/02 07:12:39;;;;;;;7.30;3.97;;;15.10;99.90;;;;;;5070510;28;20486;-61
2022/10/02 07:15:27;;;;;;;8.10;4.60;;;14.90;99.90;;;;;;5068673;28;20478;-61
2022/10/02 07:18:05;;;;;;;8.00;6.17;;;14.90;99.90;;;;;;5072441;28;20483;-61
2022/10/02 07:20:46;;;;;;;5.63;4.60;;;14.90;99.90;;;;;;5074034;28;20849;-61
2022/10/02 07:23:26;;;;;;;5.50;4.30;;;14.90;99.90;;;;;;5075455;28;20470;-61
2022/10/02 07:26:19;;;;;;;4.90;3.63;;;15.00;99.90;;;;;;5076143;28;20485;-61
2022/10/02 07:28:52;;;;;;;4.67;4.00;;;14.90;99.90;;;;;;5058726;28;21009;-61
2022/10/02 07:31:33;;;;;;;9.17;4.57;;;14.80;99.90;;;;;;5062377;28;20461;-61
2022/10/02 07:34:12;;;;;;;7.73;5.17;;;14.80;99.90;;;;;;5078371;28;20470;-61
2022/10/02 07:36:48;;;;;;;8.70;4.33;;;14.90;99.90;;;;;;5077796;28;20573;-61
2022/10/02 07:39:27;;;;;;;6.83;4.47;;;15.00;99.90;;;;;;5064209;28;20470;-62
2022/10/02 07:42:11;;;;;;;8.73;3.50;;;15.00;99.90;;;;;;5073853;28;20501;-61
2022/10/02 07:44:45;;;;;;;7.20;3.90;;;;;;;;;;5079640;28;20482;-62
2022/10/02 07:47:28;;;;;;;4.73;3.40;;;14.90;99.90;;;;;;5065542;28;20492;-61
2022/10/02 07:50:00;;;;;;;11.57;4.20;;;14.80;99.90;;;;;;5063327;28;20481;-61
2022/10/02 07:52:39;;;;;;;7.83;5.60;;;14.90;99.90;;;;;;5072438;28;20577;-61
2022/10/02 07:55:15;;;;;;;6.33;3.07;;;;;;;;;;5062959;28;20497;-61
2022/10/02 07:57:48;;;;;;;6.17;4.97;;;15.10;99.90;;;;;;5069396;28;20866;-61
2022/10/02 08:00:17;;;;;;;7.50;3.57;;;15.10;99.90;;;;;;5068942;28;20503;-61
2022/10/02 08:02:50;;;;;;;5.97;3.03;;;15.10;99.90;;;;;;5067907;28;20477;-61
2022/10/02 08:05:20;;;;;;;6.07;4.87;;;15.10;99.90;;;;;;5066871;28;20912;-60
2022/10/02 08:07:51;;;;;;;5.57;4.90;;;15.10;99.90;;;;;;5081900;28;20826;-61
2022/10/02 08:10:24;;;;;;;9.37;5.07;;;15.00;99.90;;;;;;5073423;28;20528;-61
2022/10/02 08:12:59;;;;;;;6.90;4.60;;;15.10;99.90;;;;;;5072125;28;20489;-61
2022/10/02 08:15:32;;;;;;;8.40;4.37;;;15.20;99.90;;;;;;5069629;28;20929;-61
2022/10/02 08:18:09;;;;;;;6.40;4.93;;;15.20;99.90;;;;;;5072711;28;20496;-62
2022/10/02 08:20:40;;;;;;;10.67;4.30;;;15.20;99.90;;;;;;5076890;28;20486;-61
2022/10/02 08:23:14;;;;;;;7.03;3.33;;;15.10;99.90;;;;;;5077121;28;20499;-61
2022/10/02 08:25:48;;;;;;;11.17;4.53;;;15.30;99.90;;;;;;5074041;28;20478;-61
2022/10/02 08:28:21;;;;;;;7.60;3.30;;;15.30;99.90;;;;;;5068073;28;20479;-61
2022/10/02 08:30:48;;;;;;;5.77;4.50;;;15.30;99.90;;;;;;5069897;28;21012;-61
2022/10/02 08:33:20;;;;;;;9.63;2.37;;;15.40;99.90;;;;;;5070836;28;20654;-61
2022/10/02 08:36:00;;;;;;;5.73;3.63;;;15.50;99.90;;;;;;5074007;28;20494;-61
2022/10/02 08:38:39;;;;;;;5.27;3.80;;;15.40;99.90;;;;;;5055556;28;20902;-61
2022/10/02 08:41:44;;;;;;;3.67;2.50;;;15.40;99.90;;;;;;5058786;28;20489;-60
2022/10/02 08:44:22;;;;;;;4.07;2.70;;;;;;;;;;5050917;28;20471;-61
2022/10/02 08:47:18;;;;;;;16.03;3.10;;;15.40;99.90;;;;;;5069545;28;20474;-61
2022/10/02 08:50:14;;;;;;;11.03;3.43;;;15.50;99.90;;;;;;5070899;28;20474;-61
2022/10/02 08:53:20;;;;;;;3.73;2.20;;;15.50;99.90;;;;;;5072543;28;20497;-61
2022/10/02 08:56:21;;;;;;;4.77;3.50;;;15.70;99.90;;;;;;5074039;28;20482;-61
2022/10/02 08:59:40;;;;;;;4.83;3.50;;;15.80;99.90;;;;;;5069241;28;20481;-62
2022/10/02 09:02:38;;;;;;;3.70;3.27;;;15.80;99.90;;;;;;5072816;28;20487;-61
2022/10/02 09:05:47;;;;;;;3.10;2.83;;;15.90;99.90;;;;;;5065928;28;20577;-61
2022/10/02 09:08:54;;;;;;;11.67;4.67;;;15.90;99.90;;;;;;5070766;28;20478;-61
2022/10/02 09:12:08;;;;;;;10.50;7.10;;;16.00;99.90;;;;;;5056068;28;20466;-62
2022/10/02 09:14:47;;;;;;;4.37;2.83;;;15.90;99.90;;;;;;5071682;28;20670;-61
2022/10/02 09:17:21;;;;;;;8.00;3.30;;;;;;;;;;5071781;28;20509;-62
2022/10/02 09:20:12;;;;;;;6.60;3.30;;;16.00;99.90;;;;;;5072090;28;20482;-61
2022/10/02 09:23:11;;;;;;;11.23;3.07;;;16.00;99.90;;;;;;5072295;28;20478;-61
2022/10/02 09:25:48;;;;;;;4.87;3.30;;;16.00;99.90;;;;;;5072976;28;20856;-62
2022/10/02 09:29:02;;;;;;;5.37;3.57;;;16.00;99.90;;;;;;5070017;28;20486;-61
2022/10/02 09:31:57;;;;;;;6.30;4.60;;;16.00;99.90;;;;;;5064081;28;20470;-62
2022/10/02 09:34:54;;;;;;;11.67;6.83;;;16.00;99.90;;;;;;5026328;28;20465;-62
2022/10/02 09:37:50;;;;;;;11.23;5.53;;;16.10;99.90;;;;;;5042795;28;20829;-62
2022/10/02 09:41:03;;;;;;;8.97;4.33;;;16.20;99.90;;;;;;5070796;28;20977;-62
2022/10/02 09:44:02;;;;;;;6.13;4.10;;;16.30;99.90;;;;;;5070017;28;20485;-62
2022/10/02 09:47:24;;;;;;;6.83;5.27;;;16.40;99.90;;;;;;5071220;28;20501;-61
2022/10/02 09:50:14;;;;;;;13.50;3.53;;;16.30;99.90;;;;;;5070712;28;20473;-63
2022/10/02 09:53:14;;;;;;;14.67;3.97;;;16.40;99.90;;;;;;5069373;28;20494;-63
2022/10/02 09:56:01;;;;;;;3.10;2.80;;;;;;;;;;5074226;28;20466;-63
2022/10/02 09:59:03;;;;;;;9.17;5.13;;;16.50;99.90;;;;;;5070984;28;20857;-62
2022/10/02 10:01:56;;;;;;;9.40;4.30;;;16.50;99.90;;;;;;5069028;28;21398;-62
2022/10/02 10:04:52;;;;;;;9.03;5.57;;;16.60;99.90;;;;;;5062521;28;21016;-63
2022/10/02 10:07:49;;;;;;;11.67;3.57;;;16.70;99.90;;;;;;5072886;28;20979;-63
2022/10/02 10:10:59;;;;;;;5.03;3.33;;;16.80;99.90;;;;;;5061529;28;20489;-63
2022/10/02 10:13:51;;;;;;;8.83;5.40;;;16.90;99.90;;;;;;5062849;28;20477;-63
2022/10/02 10:16:54;;;;;;;4.53;3.37;;;17.00;99.90;;;;;;5070813;28;20593;-63
2022/10/02 10:20:01;;;;;;;7.63;4.00;;;17.00;99.90;;;;;;5061485;28;20483;-62
2022/10/02 10:23:15;;;;;;;8.83;5.37;;;16.90;99.90;;;;;;5053557;28;20723;-63
2022/10/02 10:26:04;;;;;;;22.07;4.33;;;16.90;99.90;;;;;;5070731;28;20466;-63
2022/10/02 10:29:10;;;;;;;7.23;4.80;;;17.00;99.90;;;;;;5057354;28;20493;-62
2022/10/02 10:32:22;;;;;;;3.70;3.10;;;17.00;99.90;;;;;;5048624;28;20493;-62
2022/10/02 10:35:18;;;;;;;6.13;3.77;;;16.90;99.90;;;;;;5038535;28;20863;-63
2022/10/02 10:41:02;;;;;;;4.20;3.50;;;17.00;99.90;;;;;;5057996;28;20543;-62
2022/10/02 10:44:00;;;;;;;7.80;4.83;;;17.10;99.90;;;;;;5070401;28;20486;-63
2022/10/02 10:46:41;;;;;;;5.17;4.77;;;17.10;99.90;;;;;;5071088;28;20462;-63
2022/10/02 10:49:25;;;;;;;5.33;4.83;;;17.10;99.90;;;;;;5071195;28;20470;-63
2022/10/02 10:51:59;;;;;;;8.13;4.20;;;17.10;99.90;;;;;;5071361;28;20486;-62
2022/10/02 10:54:54;;;;;;;7.23;6.63;;;17.20;99.90;;;;;;5068928;28;20473;-63
2022/10/02 10:57:54;;;;;;;6.80;6.20;;;17.10;99.90;;;;;;5076632;28;20866;-63
2022/10/02 11:00:24;;;;;;;13.23;5.23;;;17.20;99.90;;;;;;5076884;28;20474;-63
2022/10/02 11:03:22;;;;;;;9.93;4.50;;;17.30;99.90;;;;;;5076636;28;20493;-62
2022/10/02 11:06:15;;;;;;;13.63;4.33;;;17.40;99.90;;;;;;5080126;28;20486;-63
2022/10/02 11:09:25;;;;;;;5.33;3.47;;;17.50;99.90;;;;;;5075631;28;20470;-63
2022/10/02 11:12:05;;;;;;;6.23;3.80;;;;;;;;;;5073106;28;20486;-63
2022/10/02 11:14:46;;;;;;;6.70;5.57;;;17.60;99.90;;;;;;5074136;28;20482;-63
2022/10/02 11:17:40;;;;;;;3.50;3.20;;;17.60;99.90;;;;;;5068045;28;20473;-63
2022/10/02 11:20:15;;;;;;;6.47;3.10;;;;;;;;;;5073917;28;20485;-63
2022/10/02 11:23:05;;;;;;;4.37;3.53;;;17.70;99.90;;;;;;5076698;28;20466;-63
2022/10/02 11:26:01;;;;;;;11.80;3.97;;;17.80;99.90;;;;;;5076827;28;20478;-63
2022/10/02 11:28:58;;;;;;;12.03;5.33;;;17.80;99.90;;;;;;5060615;28;21008;-63
2022/10/02 11:31:48;;;;;;;9.63;5.57;;;17.80;99.90;;;;;;5070339;28;20767;-62
2022/10/02 11:34:36;;;;;;;3.40;3.10;;;17.80;99.90;;;;;;5069220;28;20485;-63
2022/10/02 11:37:17;;;;;;;7.43;2.93;;;17.70;99.90;;;;;;5079825;28;20531;-62
2022/10/02 11:40:08;;;;;;;4.10;3.80;;;17.70;99.90;;;;;;5074755;28;20486;-63
2022/10/02 11:43:12;;;;;;;3.80;3.50;;;17.70;99.90;;;;;;5064658;28;20473;-63
2022/10/02 11:46:05;;;;;;;3.90;3.60;;;17.70;99.90;;;;;;5072270;28;20465;-63
2022/10/02 11:49:19;;;;;;;5.53;3.80;;;17.70;99.90;;;;;;5075247;28;20470;-63
2022/10/02 11:52:22;;;;;;;7.63;3.00;;;17.70;99.90;;;;;;5073130;28;20490;-62
2022/10/02 11:55:03;;;;;;;18.93;3.77;;;17.70;99.90;;;;;;5058976;28;20481;-63
2022/10/02 11:57:39;;;;;;;4.80;4.30;;;17.60;99.90;;;;;;5073988;28;20474;-63
2022/10/02 12:00:14;;;;;;;5.70;2.53;;;;;;;;;;5062625;28;20700;-62
2022/10/02 12:02:51;;;;;;;4.70;3.20;;;17.60;99.90;;;;;;5072962;28;20485;-62
2022/10/02 12:05:29;;;;;;;5.90;5.37;;;17.60;99.90;;;;;;5072187;28;20481;-62
2022/10/02 12:08:03;;;;;;;5.47;5.00;;;17.70;99.90;;;;;;5072411;28;20912;-62
2022/10/02 12:10:42;;;;;;;4.70;4.30;;;17.70;99.90;;;;;;5070940;28;20478;-62
2022/10/02 12:13:39;;;;;;;3.60;3.33;;;17.80;99.90;;;;;;5063542;28;20475;-62
2022/10/02 12:16:11;;;;;;;3.60;3.30;;;17.80;99.90;;;;;;5075867;28;20482;-62
2022/10/02 12:18:51;;;;;;;3.90;3.50;;;17.80;99.90;;;;;;5062598;28;20551;-62
2022/10/02 12:27:22;;;;;;;4.57;4.17;;;17.80;99.90;;;;;;5075800;28;20702;-62
2022/10/02 12:30:11;;;;;;;6.23;4.67;;;17.80;99.90;;;;;;5072549;28;20483;-62
2022/10/02 12:32:53;;;;;;;9.93;4.13;;;17.80;99.90;;;;;;5059212;28;20982;-62
2022/10/02 12:35:36;;;;;;;5.90;5.20;;;17.70;99.90;;;;;;5056300;28;20976;-62
2022/10/02 12:38:18;;;;;;;12.53;5.33;;;17.70;99.90;;;;;;5073750;28;21438;-61
2022/10/02 12:40:52;;;;;;;4.80;4.33;;;17.70;99.90;;;;;;5075905;28;21103;-63
2022/10/02 12:44:05;;;;;;;7.10;6.13;;;17.70;99.90;;;;;;5074392;28;20473;-63
2022/10/02 12:47:16;;;;;;;6.00;5.40;;;17.70;99.90;;;;;;5075160;28;20959;-63
2022/10/02 12:49:54;;;;;;;4.23;3.83;;;17.70;99.90;;;;;;5036452;28;21069;-62
2022/10/02 12:52:56;;;;;;;6.40;5.17;;;17.70;99.90;;;;;;5073442;28;20474;-63
2022/10/02 12:56:00;;;;;;;13.40;9.80;;;17.60;99.90;;;;;;5068570;28;20485;-63
2022/10/02 12:58:35;;;;;;;11.53;8.00;;;17.60;99.90;;;;;;5072457;28;20494;-63
2022/10/02 13:01:30;;;;;;;14.70;5.53;;;17.50;99.90;;;;;;5069509;28;21006;-63
2022/10/02 13:04:39;;;;;;;12.73;8.43;;;17.50;99.90;;;;;;5066400;28;20547;-63
2022/10/02 13:07:38;;;;;;;10.60;7.80;;;17.40;99.90;;;;;;5069570;28;20760;-63
2022/10/02 13:10:17;;;;;;;9.83;7.83;;;17.30;99.90;;;;;;5053946;28;21088;-63
2022/10/02 13:12:52;;;;;;;8.00;6.73;;;;;;;;;;5051159;28;20967;-63
2022/10/02 13:15:41;;;;;;;5.37;4.57;;;17.30;99.90;;;;;;5066268;28;20470;-63
2022/10/02 13:18:25;;;;;;;6.67;5.33;;;17.30;99.90;;;;;;5060494;28;20477;-63
2022/10/02 13:21:02;;;;;;;19.57;5.07;;;17.20;99.90;;;;;;5057217;28;21134;-62
2022/10/02 13:23:38;;;;;;;6.17;5.60;;;17.20;99.90;;;;;;5068116;28;20960;-63
2022/10/02 13:26:15;;;;;;;5.07;2.73;;;17.10;99.90;;;;;;5067191;28;20492;-63
2022/10/02 13:29:08;;;;;;;6.63;4.80;;;17.10;99.90;;;;;;5049287;28;20482;-63
2022/10/02 13:31:49;;;;;;;11.00;8.23;;;17.10;99.90;;;;;;5064676;28;20466;-63
2022/10/02 13:34:34;;;;;;;9.80;5.80;;;17.10;99.90;;;;;;5043979;28;20510;-62
2022/10/02 13:37:14;;;;;;;7.43;6.27;;;17.20;99.90;;;;;;5043496;28;20479;-62
2022/10/02 13:40:02;;;;;;;12.03;9.63;;;17.20;99.90;;;;;;5041213;28;20475;-63
2022/10/02 13:42:41;;;;;;;18.30;11.10;;;17.20;99.90;;;;;;5046768;28;20581;-62
2022/10/02 13:45:18;;;;;;;24.17;10.87;;;17.20;99.90;;;;;;5047516;28;20478;-63
2022/10/02 13:47:56;;;;;;;85.83;34.50;;;17.10;99.90;;;;;;5032089;28;20464;-63
2022/10/02 13:50:28;;;;;;;67.47;28.87;;;;;;;;;;5046335;28;20466;-62
2022/10/02 13:53:18;;;;;;;18.57;13.80;;;17.20;99.90;;;;;;5045193;28;20857;-63
2022/10/02 13:55:51;;;;;;;11.73;7.30;;;17.20;99.90;;;;;;5009492;28;20480;-62
2022/10/02 13:58:40;;;;;;;10.00;8.90;;;17.20;99.90;;;;;;5030102;28;20580;-62
2022/10/02 14:01:17;;;;;;;6.50;4.50;;;17.20;99.90;;;;;;5047252;28;20475;-63
2022/10/02 14:03:59;;;;;;;9.90;5.43;;;17.20;99.90;;;;;;5036908;28;20837;-63
2022/10/02 14:06:31;;;;;;;8.07;5.80;;;17.20;99.90;;;;;;5044050;28;20487;-62